Time;durP1;ratioP1;P1;durP2;ratioP2;P2;SDS_P1;SDS_P2;PMS_P1;PMS_P2;Temp;Humidity;BMP_temperature;BMP_pressure;BME280_temperature;BME280_humidity;BME280_pressure;Samples;Min_cycle;Max_cycle;Signal;HPM_P1;HPM_P2
2023/09/15 00:01:39;;;;;;;13.70;6.22;;;;;;;9.93;69.35;100327.22;4906514;29;20119;-66
2023/09/15 00:04:06;;;;;;;10.32;6.25;;;;;;;10.03;69.59;100357.56;4943677;28;20047;-67
2023/09/15 00:06:35;;;;;;;15.30;8.82;;;;;;;9.95;69.25;100347.16;4930418;29;20050;-67
2023/09/15 00:09:06;;;;;;;14.90;8.70;;;;;;;9.95;69.46;100354.94;4928969;29;20036;-66
2023/09/15 00:11:40;;;;;;;11.65;7.55;;;;;;;9.89;69.21;100346.28;4929497;29;20040;-66
2023/09/15 00:14:10;;;;;;;9.57;6.95;;;;;;;9.91;69.73;100349.75;4943163;28;20036;-67
2023/09/15 00:16:42;;;;;;;15.10;8.57;;;;;;;9.89;69.81;100352.31;4929328;29;20134;-66
2023/09/15 00:19:13;;;;;;;13.63;8.43;;;;;;;9.78;69.94;100333.25;4943474;28;20138;-66
2023/09/15 00:21:40;;;;;;;14.38;9.25;;;;;;;9.85;69.84;100347.97;4927192;29;20048;-66
2023/09/15 00:24:06;;;;;;;13.68;8.52;;;;;;;9.83;69.85;100347.09;4943290;28;20047;-66
2023/09/15 00:26:33;;;;;;;16.90;9.18;;;;;;;9.73;70.20;100337.56;4942020;28;20044;-66
2023/09/15 00:29:02;;;;;;;19.40;7.43;;;;;;;9.84;70.53;100353.19;4928421;29;21461;-67
2023/09/15 00:31:29;;;;;;;11.40;6.97;;;;;;;9.67;70.78;100324.53;4928741;29;20042;-68
2023/09/15 00:33:55;;;;;;;13.02;8.63;;;;;;;9.68;70.67;100321.06;4911906;29;20044;-65
2023/09/15 00:36:22;;;;;;;17.13;7.38;;;;;;;9.86;70.55;100354.91;4926636;29;20059;-66
2023/09/15 00:38:48;;;;;;;13.90;7.22;;;;;;;9.70;70.58;100343.63;4927399;29;20049;-65
2023/09/15 00:41:14;;;;;;;13.57;8.38;;;;;;;9.72;70.72;100351.41;4927736;29;20054;-67
2023/09/15 00:43:41;;;;;;;12.95;7.07;;;;;;;9.80;70.85;100365.31;4940436;28;20028;-65
2023/09/15 00:46:08;;;;;;;13.73;6.88;;;;;;;9.75;71.05;100356.63;4943580;28;20797;-66
2023/09/15 00:48:37;;;;;;;10.48;5.60;;;;;;;9.73;70.57;100360.94;4929665;29;20063;-66
2023/09/15 00:51:06;;;;;;;12.02;6.32;;;;;;;9.59;70.51;100343.59;4911386;29;20123;-67
2023/09/15 00:53:35;;;;;;;9.43;5.85;;;;;;;9.72;70.09;100367.88;4943912;28;20040;-67
2023/09/15 00:56:03;;;;;;;10.55;5.50;;;;;;;9.58;70.50;100354.84;4942915;28;20039;-68
2023/09/15 00:58:31;;;;;;;13.05;6.93;;;;;;;9.64;70.43;100375.63;4913255;29;20102;-68
2023/09/15 01:00:57;;;;;;;11.43;7.22;;;;;;;9.41;70.35;100328.78;4928645;29;20054;-67
2023/09/15 01:03:24;;;;;;;14.55;8.82;;;;;;;9.62;70.29;100369.56;4942750;28;20067;-66
2023/09/15 01:05:51;;;;;;;15.05;8.52;;;;;;;9.59;70.84;100374.78;4942241;28;20446;-66
2023/09/15 01:08:17;;;;;;;13.20;8.68;;;;;;;9.46;71.00;100347.88;4928818;29;20040;-67
2023/09/15 01:10:44;;;;;;;9.70;6.18;;;;;;;9.48;71.15;100345.25;4927693;29;20824;-67
2023/09/15 01:13:10;;;;;;;11.60;7.68;;;;;;;9.54;71.01;100363.47;4942236;28;20148;-67
2023/09/15 01:15:48;;;;;;;12.25;7.55;;;;;;;9.59;70.99;100371.28;4927439;29;20044;-67
2023/09/15 01:18:35;;;;;;;11.55;8.13;;;;;;;9.61;70.89;100378.22;4942477;28;20649;-67
2023/09/15 01:21:17;;;;;;;15.70;8.98;;;;;;;9.61;71.13;100377.34;4942432;28;20218;-69
2023/09/15 01:24:02;;;;;;;14.73;8.13;;;;;;;9.58;70.90;100378.22;4942861;28;20452;-67
2023/09/15 01:26:58;;;;;;;12.15;6.80;;;;;;;9.33;70.90;100340.84;4942582;28;20079;-67
2023/09/15 01:29:40;;;;;;;11.88;7.45;;;;;;;9.49;70.85;100375.56;4927140;29;20043;-67
2023/09/15 01:32:09;;;;;;;20.00;7.32;;;;;;;9.28;70.95;100350.34;4941854;28;20046;-67
2023/09/15 01:34:36;;;;;;;14.63;8.45;;;;;;;9.33;71.10;100356.44;4926962;29;20043;-67
2023/09/15 01:37:03;;;;;;;14.82;7.95;;;;;;;9.48;70.69;100379.03;4942214;28;20043;-66
2023/09/15 01:39:30;;;;;;;16.15;8.95;;;;;;;9.50;71.04;100374.72;4926754;29;20044;-67
2023/09/15 01:41:58;;;;;;;15.73;9.15;;;;;;;9.44;71.15;100365.16;4941152;28;20624;-66
2023/09/15 01:44:24;;;;;;;20.08;9.25;;;;;;;9.45;71.11;100363.44;4945037;28;20039;-66
2023/09/15 01:46:50;;;;;;;16.15;9.15;;;;;;;9.44;71.07;100365.16;4928859;29;20050;-66
2023/09/15 01:49:21;;;;;;;14.23;9.00;;;;;;;9.21;71.28;100341.66;4929293;29;20048;-66
2023/09/15 01:51:48;;;;;;;12.75;8.82;;;;;;;9.42;71.45;100382.47;4943281;28;20421;-67
2023/09/15 01:54:16;;;;;;;11.55;6.90;;;;;;;9.43;71.48;100372.94;4925834;29;20067;-66
2023/09/15 01:56:49;;;;;;;14.32;6.57;;;;;;;9.43;71.67;100379.00;4927419;29;20047;-66
2023/09/15 01:59:15;;;;;;;16.23;6.80;;;;;;;9.14;71.59;100330.38;4926680;29;20046;-67
2023/09/15 02:01:42;;;;;;;12.02;6.65;;;;;;;9.25;71.34;100359.00;4941882;28;20110;-66
2023/09/15 02:04:09;;;;;;;10.88;7.18;;;;;;;9.33;71.18;100377.22;4929112;29;20047;-67
2023/09/15 02:06:36;;;;;;;11.82;6.65;;;;;;;9.30;71.07;100378.09;4928781;29;20048;-67
2023/09/15 02:09:06;;;;;;;12.00;6.50;;;;;;;9.20;71.21;100371.09;4943000;28;20047;-67
2023/09/15 02:11:32;;;;;;;9.73;6.32;;;;;;;9.07;70.99;100348.50;4941429;28;20040;-66
2023/09/15 02:14:00;;;;;;;9.82;6.78;;;;;;;9.26;70.96;100384.13;4910965;29;20062;-64
2023/09/15 02:16:28;;;;;;;14.02;7.82;;;;;;;9.19;71.09;100379.72;4927584;29;20043;-65
2023/09/15 02:18:54;;;;;;;12.63;7.65;;;;;;;9.15;70.63;100380.59;4930419;28;20040;-66
2023/09/15 02:21:21;;;;;;;13.52;8.02;;;;;;;8.94;70.90;100350.16;4941826;28;20040;-65
2023/09/15 02:23:47;;;;;;;18.15;7.80;;;;;;;9.16;70.74;100396.16;4943507;28;20039;-67
2023/09/15 02:26:13;;;;;;;14.93;8.20;;;;;;;9.20;70.80;100389.25;4918797;29;20510;-65
2023/09/15 02:28:39;;;;;;;15.35;8.70;;;;;;;9.19;71.04;100384.91;4928384;29;20078;-66
2023/09/15 02:31:07;;;;;;;16.35;9.57;;;;;;;9.29;70.91;100389.31;4930764;29;20039;-66
2023/09/15 02:33:37;;;;;;;15.30;10.60;;;;;;;9.38;71.03;100393.69;4928327;29;20107;-66
2023/09/15 02:36:04;;;;;;;11.13;7.28;;;;;;;9.47;71.01;100390.28;4925924;28;20138;-66
2023/09/15 02:38:34;;;;;;;12.45;7.70;;;;;;;9.44;71.26;100382.47;4922285;29;20082;-66
2023/09/15 02:41:01;;;;;;;14.50;7.40;;;;;;;9.52;71.06;100395.50;4929115;29;20039;-67
2023/09/15 02:43:27;;;;;;;18.02;9.43;;;;;;;9.37;71.27;100371.19;4932854;29;20047;-66
2023/09/15 02:45:53;;;;;;;13.98;7.97;;;;;;;9.41;71.02;100369.47;4928393;29;20101;-67
2023/09/15 02:48:21;;;;;;;19.35;8.02;;;;;;;9.47;70.90;100380.78;4922846;29;20195;-68
2023/09/15 02:50:47;;;;;;;18.30;8.38;;;;;;;9.47;71.18;100374.69;4930468;29;20138;-68
2023/09/15 02:53:14;;;;;;;19.30;9.07;;;;;;;9.55;70.74;100399.00;4942233;28;20082;-68
2023/09/15 02:55:40;;;;;;;12.27;7.45;;;;;;;9.53;70.63;100394.63;4927842;29;20540;-68
2023/09/15 02:58:06;;;;;;;15.25;8.00;;;;;;;9.48;70.59;100389.41;4926208;29;20086;-67
2023/09/15 03:00:32;;;;;;;13.77;7.72;;;;;;;9.53;70.33;100398.13;4942558;28;20098;-67
2023/09/15 03:03:00;;;;;;;16.98;10.32;;;;;;;9.42;70.26;100399.78;4926428;29;20039;-66
2023/09/15 03:05:27;;;;;;;21.52;12.57;;;;;;;9.46;70.31;100410.22;4926011;29;20040;-67
2023/09/15 03:07:53;;;;;;;18.83;10.13;;;;;;;9.57;70.86;100411.97;4922726;29;20086;-68
2023/09/15 03:10:20;;;;;;;17.10;9.02;;;;;;;9.58;71.14;100382.53;4926109;29;20051;-65
2023/09/15 03:12:47;;;;;;;14.25;7.88;;;;;;;9.69;70.87;100388.66;4927550;28;20514;-68
2023/09/15 03:15:13;;;;;;;18.20;8.23;;;;;;;9.87;71.01;100405.19;4930695;29;20043;-68
2023/09/15 03:17:40;;;;;;;18.83;8.48;;;;;;;9.79;70.88;100380.03;4927621;29;20043;-67
2023/09/15 03:20:15;;;;;;;13.27;7.40;;;;;;;9.65;70.44;100347.94;4942214;28;20498;-67
2023/09/15 03:22:44;;;;;;;18.05;8.63;;;;;;;10.06;70.38;100395.69;4925778;29;20032;-68
2023/09/15 03:25:10;;;;;;;12.13;7.20;;;;;;;10.13;70.16;100389.66;4926500;29;20585;-67
2023/09/15 03:27:38;;;;;;;11.23;7.43;;;;;;;10.28;70.71;100395.75;4941391;28;20047;-65
2023/09/15 03:30:06;;;;;;;14.52;6.72;;;;;;;10.38;70.14;100407.91;4942257;28;20048;-66
2023/09/15 03:32:34;;;;;;;12.27;7.30;;;;;;;10.52;70.37;100405.38;4925206;29;20075;-67
2023/09/15 03:35:01;;;;;;;9.82;7.05;;;;;;;10.57;70.28;100389.75;4941169;28;20130;-67
2023/09/15 03:37:30;;;;;;;11.30;7.15;;;;;;;10.56;69.83;100368.09;4929214;28;20043;-66
2023/09/15 03:39:56;;;;;;;12.38;7.22;;;;;;;10.78;70.21;100378.50;4925681;29;20865;-67
2023/09/15 03:42:22;;;;;;;11.02;6.80;;;;;;;11.11;69.56;100401.03;4926612;29;20035;-67
2023/09/15 03:44:49;;;;;;;14.30;7.22;;;;;;;11.14;69.43;100384.50;4927766;29;20128;-68
2023/09/15 03:47:15;;;;;;;11.73;7.72;;;;;;;11.35;69.20;100394.03;4942028;28;20043;-68
2023/09/15 03:49:42;;;;;;;9.63;7.60;;;;;;;11.55;68.92;100403.53;4941790;28;20071;-68
2023/09/15 03:52:08;;;;;;;11.85;7.47;;;;;;;11.64;68.91;100389.59;4914537;29;20067;-68
2023/09/15 03:54:35;;;;;;;10.52;7.35;;;;;;;11.67;68.83;100364.38;4942940;28;20039;-69
2023/09/15 03:57:03;;;;;;;11.48;7.50;;;;;;;12.04;68.16;100395.50;4928522;29;20428;-67
2023/09/15 03:59:29;;;;;;;13.30;7.47;;;;;;;12.08;68.17;100374.63;4928091;29;20074;-69
2023/09/15 04:01:55;;;;;;;11.93;7.70;;;;;;;12.09;67.71;100358.09;4927769;29;20047;-68
2023/09/15 04:04:21;;;;;;;10.50;7.25;;;;;;;12.47;67.48;100399.59;4943134;28;20047;-67
2023/09/15 04:06:47;;;;;;;13.63;7.15;;;;;;;12.70;67.21;100400.28;4944014;28;20402;-69
2023/09/15 04:09:13;;;;;;;13.63;7.68;;;;;;;12.90;66.87;100397.50;4944681;28;20043;-68
2023/09/15 04:11:40;;;;;;;13.20;6.90;;;;;;;13.10;66.44;100397.34;4928479;29;20103;-68
2023/09/15 04:14:07;;;;;;;10.85;6.97;;;;;;;13.22;66.07;100378.91;4912856;29;20102;-68
2023/09/15 04:16:35;;;;;;;12.23;7.50;;;;;;;13.51;65.61;100387.34;4934507;29;20035;-68
2023/09/15 04:19:02;;;;;;;11.90;7.78;;;;;;;13.74;65.36;100394.03;4929550;29;20044;-67
2023/09/15 04:21:28;;;;;;;12.63;7.25;;;;;;;13.91;64.91;100385.97;4927466;29;20530;-67
2023/09/15 04:23:56;;;;;;;9.90;6.78;;;;;;;14.02;64.48;100365.75;4910506;29;20043;-66
2023/09/15 04:26:22;;;;;;;13.82;7.25;;;;;;;14.14;63.69;100378.69;4929969;29;20050;-67
2023/09/15 04:28:48;;;;;;;9.77;7.20;;;;;;;14.05;63.34;100383.19;4928236;29;20047;-69
2023/09/15 04:31:14;;;;;;;13.73;7.20;;;;;;;14.02;63.24;100389.31;4928499;29;20047;-68
2023/09/15 04:33:44;;;;;;;12.20;7.60;;;;;;;13.66;62.72;100363.63;4924760;29;20422;-67
2023/09/15 04:36:10;;;;;;;10.45;7.10;;;;;;;13.52;62.85;100350.72;4925392;29;20134;-68
2023/09/15 04:38:37;;;;;;;13.13;8.23;;;;;;;13.71;63.01;100381.88;4944483;28;20546;-67
2023/09/15 04:41:04;;;;;;;13.93;8.00;;;;;;;13.98;62.93;100405.97;4940136;28;20047;-67
2023/09/15 04:43:30;;;;;;;16.27;8.57;;;;;;;14.09;62.58;100411.91;4944622;28;20044;-67
2023/09/15 04:45:57;;;;;;;10.70;7.63;;;;;;;14.04;62.77;100387.53;4930010;29;22065;-67
2023/09/15 04:48:23;;;;;;;14.27;8.38;;;;;;;14.24;62.32;100404.69;4928634;29;20051;-70
2023/09/15 04:50:49;;;;;;;15.38;9.35;;;;;;;14.43;62.57;100416.66;4925571;29;20044;-70
2023/09/15 04:53:16;;;;;;;14.93;8.93;;;;;;;14.55;62.33;100399.91;4943894;28;21446;-66
2023/09/15 04:55:42;;;;;;;18.65;8.57;;;;;;;15.01;61.83;100403.53;4928195;29;20051;-68
2023/09/15 04:58:11;;;;;;;13.95;8.85;;;;;;;15.24;61.36;100365.53;4942936;28;20051;-68
2023/09/15 05:00:42;;;;;;;18.98;9.57;;;;;;;15.95;60.87;100398.25;4943732;28;20041;-67
2023/09/15 05:03:10;;;;;;;22.67;9.82;;;;;;;16.15;60.07;100389.06;4905653;29;20064;-69
2023/09/15 05:05:35;;;;;;;18.88;8.98;;;;;;;16.39;59.57;100378.88;4900482;29;20075;-67
2023/09/15 05:08:02;;;;;;;17.42;9.52;;;;;;;17.03;58.74;100409.75;4928260;29;20063;-67
2023/09/15 05:10:28;;;;;;;18.42;10.02;;;;;;;17.18;58.17;100363.78;4943176;28;20530;-67
2023/09/15 05:12:55;;;;;;;21.23;10.20;;;;;;;17.90;57.14;100394.19;4943074;28;20429;-68
2023/09/15 05:15:22;;;;;;;18.90;9.82;;;;;;;18.89;56.59;100396.34;4939874;28;20130;-69
2023/09/15 05:17:48;;;;;;;19.98;10.05;;;;;;;20.08;55.82;100371.91;4922802;29;20126;-68
2023/09/15 05:20:16;;;;;;;15.80;9.35;;;;;;;21.82;53.44;100394.50;4923560;29;20143;-69
2023/09/15 05:22:42;;;;;;;16.48;8.88;;;;;;;22.90;50.47;100396.41;4925108;29;20040;-69
2023/09/15 05:25:09;;;;;;;15.27;8.05;;;;;;;23.56;47.90;100392.13;4907517;29;20044;-70
2023/09/15 05:27:35;;;;;;;17.17;7.70;;;;;;;24.26;46.22;100387.47;4927265;29;20506;-68
2023/09/15 05:30:03;;;;;;;13.27;8.32;;;;;;;24.92;44.29;100391.63;4910707;29;20091;-69
2023/09/15 05:32:33;;;;;;;17.58;9.75;;;;;;;24.88;42.54;100360.81;4928185;29;20044;-70
2023/09/15 05:34:59;;;;;;;17.42;11.48;;;;;;;25.03;41.93;100372.34;4941488;28;20047;-66
2023/09/15 05:37:25;;;;;;;19.48;11.57;;;;;;;25.29;40.70;100382.34;4921433;29;20039;-66
2023/09/15 05:39:52;;;;;;;15.70;10.45;;;;;;;25.54;39.74;100377.22;4928085;29;20047;-67
2023/09/15 05:42:18;;;;;;;13.95;9.50;;;;;;;26.09;39.19;100365.81;4935795;28;20557;-65
2023/09/15 05:44:44;;;;;;;12.02;8.55;;;;;;;26.95;38.40;100358.38;4928307;29;20421;-66
2023/09/15 05:47:11;;;;;;;14.13;8.63;;;;;;;27.91;36.45;100387.28;4944376;28;20495;-66
2023/09/15 05:49:36;;;;;;;10.95;8.43;;;;;;;28.50;34.86;100358.03;4944860;28;20633;-66
2023/09/15 05:52:02;;;;;;;10.70;7.65;;;;;;;29.16;33.95;100382.44;4941567;28;20043;-65
2023/09/15 05:54:28;;;;;;;8.70;7.38;;;;;;;29.64;32.98;100374.31;4928282;29;20040;-66
2023/09/15 05:56:55;;;;;;;14.77;7.60;;;;;;;30.34;32.06;100383.78;4920529;29;20130;-65
2023/09/15 05:59:21;;;;;;;9.27;7.47;;;;;;;31.14;31.46;100383.44;4923491;29;20067;-64
2023/09/15 06:01:48;;;;;;;10.13;7.18;;;;;;;32.06;29.97;100360.13;4910372;29;20090;-66
2023/09/15 06:04:14;;;;;;;7.38;5.70;;;;;;;33.31;28.33;100371.88;4942579;28;20103;-65
2023/09/15 06:06:41;;;;;;;7.47;5.68;;;;;;;33.90;27.32;100362.69;4925728;29;20478;-68
2023/09/15 06:09:06;;;;;;;7.38;5.68;;;;;;;34.50;26.20;100353.13;4942031;28;20063;-67
2023/09/15 06:11:33;;;;;;;8.93;5.95;;;;;;;34.95;25.15;100333.22;4942270;28;20454;-67
2023/09/15 06:13:59;;;;;;;7.57;5.30;;;;;;;36.18;24.19;100374.44;4926001;29;20047;-68
2023/09/15 06:16:28;;;;;;;6.10;5.40;;;;;;;36.51;23.17;100341.13;4925980;29;20044;-66
2023/09/15 06:18:54;;;;;;;5.80;5.05;;;;;;;37.39;22.59;100371.94;4927227;29;20098;-68
2023/09/15 06:21:20;;;;;;;7.22;4.93;;;;;;;37.22;22.20;100320.47;4926244;29;20035;-69
2023/09/15 06:23:46;;;;;;;5.22;4.72;;;;;;;36.90;21.02;100352.06;4941280;28;20098;-67
2023/09/15 06:26:12;;;;;;;9.98;5.00;;;;;;;35.29;22.19;100312.59;4925987;29;20035;-72
2023/09/15 06:28:38;;;;;;;5.18;4.53;;;;;;;34.43;22.54;100301.63;4928616;28;20043;-67
2023/09/15 06:31:04;;;;;;;6.10;5.15;;;;;;;34.91;22.85;100369.63;4940055;28;20527;-67
2023/09/15 06:33:30;;;;;;;6.95;5.50;;;;;;;35.03;22.59;100356.72;4927465;29;20048;-67
2023/09/15 06:35:57;;;;;;;9.65;6.15;;;;;;;34.80;22.18;100334.78;4921282;28;20178;-69
2023/09/15 06:38:23;;;;;;;7.50;5.70;;;;;;;34.72;22.16;100303.16;4939338;28;20134;-67
2023/09/15 06:40:49;;;;;;;8.73;5.53;;;;;;;35.64;22.49;100372.91;4917373;29;20211;-67
2023/09/15 06:43:15;;;;;;;8.10;5.45;;;;;;;37.36;20.78;100364.16;4926008;29;20040;-68
2023/09/15 06:45:42;;;;;;;6.43;4.90;;;;;;;38.97;19.44;100331.75;4941518;28;20490;-67
2023/09/15 06:48:08;;;;;;;6.03;4.68;;;;;;;39.70;18.20;100292.91;4926923;29;20048;-67
2023/09/15 06:50:34;;;;;;;6.85;4.10;;;;;;;39.89;17.82;100342.34;4941528;28;20035;-69
2023/09/15 06:53:00;;;;;;;6.40;4.15;;;;;;;41.08;16.95;100373.56;4941337;28;20050;-69
2023/09/15 06:55:26;;;;;;;4.40;3.75;;;;;;;41.86;16.08;100349.72;4926609;29;20122;-70
2023/09/15 06:57:52;;;;;;;5.18;3.92;;;;;;;42.32;15.44;100369.13;4927664;29;20047;-68
2023/09/15 07:00:19;;;;;;;5.65;3.90;;;;;;;42.86;15.32;100343.47;4921271;29;20066;-71
2023/09/15 07:02:45;;;;;;;5.00;4.00;;;;;;;43.56;14.87;100354.81;4924073;29;20039;-69
2023/09/15 07:05:11;;;;;;;5.72;3.88;;;;;;;44.09;14.57;100359.97;4930813;29;20466;-69
2023/09/15 07:07:37;;;;;;;4.53;4.15;;;;;;;44.62;13.95;100333.19;4930719;29;20170;-70
2023/09/15 07:10:04;;;;;;;4.53;4.13;;;;;;;45.44;13.40;100361.41;4944705;28;20043;-69
2023/09/15 07:12:30;;;;;;;4.15;3.75;;;;;;;46.07;12.44;100373.00;4941485;28;20159;-68
2023/09/15 07:14:58;;;;;;;8.05;4.20;;;;;;;46.34;12.47;100366.25;4941008;28;20085;-70
2023/09/15 07:17:24;;;;;;;5.13;3.92;;;;;;;46.73;11.49;100363.88;4923978;29;20039;-72
2023/09/15 07:19:50;;;;;;;4.90;4.32;;;;;;;46.01;11.59;100330.78;4940427;28;20059;-71
2023/09/15 07:22:16;;;;;;;4.63;3.97;;;;;;;46.43;11.78;100364.84;4939136;28;20047;-70
2023/09/15 07:24:42;;;;;;;6.85;4.43;;;;;;;47.27;11.39;100358.19;4940456;28;20067;-71
2023/09/15 07:27:11;;;;;;;4.70;3.88;;;;;;;47.55;10.75;100319.84;4942858;28;20040;-71
2023/09/15 07:29:38;;;;;;;4.65;3.88;;;;;;;47.74;10.55;100350.81;4940051;28;20694;-71
2023/09/15 07:32:04;;;;;;;4.68;3.80;;;;;;;47.68;10.38;100374.66;4926772;29;20044;-72
2023/09/15 07:34:31;;;;;;;5.97;4.05;;;;;;;46.81;10.31;100348.94;4891246;29;20130;-71
2023/09/15 07:36:57;;;;;;;7.88;3.92;;;;;;;46.36;10.52;100296.19;4945034;28;20437;-70
2023/09/15 07:39:23;;;;;;;7.15;3.78;;;;;;;46.59;11.04;100375.09;4931567;29;20036;-72
2023/09/15 07:41:49;;;;;;;4.63;4.07;;;;;;;45.78;10.60;100337.09;4929203;29;20040;-72
2023/09/15 07:44:15;;;;;;;4.07;3.67;;;;;;;44.37;11.44;100298.38;4944425;28;20044;-71
2023/09/15 07:46:41;;;;;;;4.88;4.38;;;;;;;44.92;11.52;100364.56;4929130;29;20085;-72
2023/09/15 07:49:07;;;;;;;4.32;3.60;;;;;;;45.43;11.09;100368.81;4931209;29;20379;-70
2023/09/15 07:51:34;;;;;;;4.18;3.60;;;;;;;46.13;11.18;100374.81;4941044;28;20036;-71
2023/09/15 07:54:01;;;;;;;4.30;3.85;;;;;;;46.19;10.86;100358.47;4928884;29;20043;-72
2023/09/15 07:56:27;;;;;;;6.68;3.83;;;;;;;46.24;10.88;100303.56;4930245;29;20047;-70
2023/09/15 07:58:53;;;;;;;4.05;3.65;;;;;;;47.25;10.05;100365.84;4924975;29;20039;-71
2023/09/15 08:01:20;;;;;;;5.55;3.60;;;;;;;47.47;9.82;100323.84;4927109;29;20142;-70
2023/09/15 08:03:46;;;;;;;5.22;3.78;;;;;;;47.72;9.75;100319.91;4929730;29;20048;-71
2023/09/15 08:06:13;;;;;;;6.38;4.00;;;;;;;46.85;9.97;100311.59;4941350;28;20051;-72
2023/09/15 08:08:39;;;;;;;4.05;3.65;;;;;;;45.77;10.07;100318.94;4930066;29;20039;-74
2023/09/15 08:11:05;;;;;;;3.67;3.35;;;;;;;45.43;10.28;100362.47;4928583;29;20039;-71
2023/09/15 08:13:32;;;;;;;6.25;3.75;;;;;;;45.17;10.48;100350.72;4928181;29;20418;-71
2023/09/15 08:15:58;;;;;;;8.38;4.00;;;;;;;44.13;10.95;100329.41;4929715;29;20044;-69
2023/09/15 08:18:24;;;;;;;8.90;3.97;;;;;;;42.93;11.19;100353.53;4934713;29;20147;-71
2023/09/15 08:20:50;;;;;;;9.25;3.38;;;;;;;41.15;11.90;100353.66;4944135;28;20047;-73
2023/09/15 08:23:16;;;;;;;10.02;3.85;;;;;;;39.49;13.13;100369.94;4944062;28;20040;-72
2023/09/15 08:25:42;;;;;;;7.63;3.63;;;;;;;37.68;13.92;100308.03;4927304;29;20044;-72
2023/09/15 08:28:09;;;;;;;7.38;3.72;;;;;;;37.63;14.72;100375.56;4928756;29;20044;-72
2023/09/15 08:30:35;;;;;;;12.10;3.92;;;;;;;37.47;14.47;100355.63;4928983;29;20079;-69
2023/09/15 08:33:11;;;;;;;8.25;3.70;;;;;;;37.81;14.52;100302.88;4928957;29;20043;-71
2023/09/15 08:35:37;;;;;;;4.80;3.20;;;;;;;38.47;14.37;100306.97;4929409;29;20043;-71
2023/09/15 08:38:04;;;;;;;5.85;3.40;;;;;;;37.98;14.29;100311.75;4943857;28;20099;-72
2023/09/15 08:40:38;;;;;;;6.15;3.30;;;;;;;36.93;14.99;100327.31;4927229;29;20840;-70
2023/09/15 08:43:08;;;;;;;7.38;3.83;;;;;;;36.41;15.35;100368.34;4927289;29;20043;-71
2023/09/15 08:45:35;;;;;;;6.90;3.40;;;;;;;36.21;16.07;100374.09;4927979;29;20458;-69
2023/09/15 08:48:05;;;;;;;4.82;3.55;;;;;;;36.10;15.88;100377.13;4927727;29;20074;-68
2023/09/15 08:50:33;;;;;;;7.85;4.03;;;;;;;35.72;16.15;100340.47;4942137;28;20411;-72
2023/09/15 08:53:03;;;;;;;4.05;3.50;;;;;;;36.50;16.41;100347.53;4928185;29;20044;-70
2023/09/15 08:55:29;;;;;;;4.60;3.13;;;;;;;36.87;16.10;100365.09;4926640;29;20471;-70
2023/09/15 08:57:57;;;;;;;4.13;3.05;;;;;;;37.22;15.57;100371.16;4928453;29;20066;-70
2023/09/15 09:00:23;;;;;;;5.55;3.10;;;;;;;37.25;15.45;100372.66;4942193;28;20074;-72
2023/09/15 09:02:51;;;;;;;4.10;3.00;;;;;;;36.55;15.98;100334.34;4940872;28;20040;-69
2023/09/15 09:05:18;;;;;;;2.85;2.53;;;;;;;35.70;15.84;100356.03;4929543;29;20044;-72
2023/09/15 09:07:46;;;;;;;5.40;2.90;;;;;;;34.62;16.26;100334.81;4933493;29;20040;-70
2023/09/15 09:10:13;;;;;;;3.78;2.65;;;;;;;33.90;16.67;100370.78;4929273;29;20111;-72
2023/09/15 09:12:39;;;;;;;4.10;2.70;;;;;;;33.70;17.02;100375.41;4920667;29;20063;-71
2023/09/15 09:15:06;;;;;;;3.95;2.90;;;;;;;34.04;17.21;100345.13;4942583;28;20043;-73
2023/09/15 09:17:32;;;;;;;5.43;2.60;;;;;;;33.81;16.98;100361.72;4927178;29;20138;-73
2023/09/15 09:19:59;;;;;;;5.97;3.13;;;;;;;32.90;17.22;100345.22;4934057;29;20055;-73
2023/09/15 09:22:24;;;;;;;3.33;2.97;;;;;;;32.59;18.20;100326.56;4938918;28;20039;-73
2023/09/15 09:24:56;;;;;;;3.00;2.70;;;;;;;32.70;18.31;100365.94;4927980;29;20122;-72
2023/09/15 09:27:22;;;;;;;4.00;2.80;;;;;;;31.89;19.04;100347.38;4943204;28;20409;-73
2023/09/15 09:29:48;;;;;;;8.52;3.05;;;;;;;31.75;18.86;100349.44;4928914;29;20043;-74
2023/09/15 09:32:14;;;;;;;3.13;2.83;;;;;;;31.29;19.36;100359.75;4941024;28;20047;-73
2023/09/15 09:34:41;;;;;;;4.60;2.97;;;;;;;31.10;19.60;100368.53;4927846;29;20051;-73
2023/09/15 09:37:07;;;;;;;3.25;2.60;;;;;;;31.76;19.73;100351.16;4941353;28;20110;-72
2023/09/15 09:39:35;;;;;;;6.68;3.30;;;;;;;32.83;18.84;100383.66;4941832;28;20035;-72
2023/09/15 09:42:02;;;;;;;3.50;3.05;;;;;;;32.65;18.81;100367.38;4927777;28;20043;-72
2023/09/15 09:44:30;;;;;;;3.63;2.78;;;;;;;31.97;19.11;100344.81;4942799;28;20071;-72
2023/09/15 09:46:57;;;;;;;3.47;2.90;;;;;;;32.47;19.29;100356.47;4928908;29;20075;-73
2023/09/15 09:49:23;;;;;;;5.43;3.00;;;;;;;32.31;19.52;100328.28;4927153;29;20040;-73
2023/09/15 09:51:55;;;;;;;3.78;2.92;;;;;;;32.89;19.00;100364.22;4937749;28;20035;-73
2023/09/15 09:54:27;;;;;;;4.57;2.90;;;;;;;32.56;19.12;100337.59;4928059;28;20071;-75
2023/09/15 09:56:54;;;;;;;6.25;3.00;;;;;;;32.06;19.21;100341.28;4941878;28;20047;-72
2023/09/15 09:59:21;;;;;;;3.20;2.90;;;;;;;31.80;19.67;100366.03;4938991;28;20047;-73
2023/09/15 10:01:47;;;;;;;6.32;5.28;;;;;;;31.73;19.44;100374.78;4937590;28;20047;-74
2023/09/15 10:04:13;;;;;;;8.43;4.90;;;;;;;31.30;19.93;100353.38;4927496;29;20058;-73
2023/09/15 10:06:39;;;;;;;5.88;3.80;;;;;;;30.38;20.62;100352.19;4927189;29;20058;-73
2023/09/15 10:09:06;;;;;;;5.00;3.50;;;;;;;29.85;21.51;100340.41;4942337;28;20043;-74
2023/09/15 10:11:34;;;;;;;3.72;2.97;;;;;;;29.82;21.44;100327.22;4926577;29;20078;-73
2023/09/15 10:14:05;;;;;;;4.25;2.85;;;;;;;29.89;21.46;100368.66;4927801;29;20131;-72
2023/09/15 10:16:35;;;;;;;4.60;2.85;;;;;;;29.48;21.67;100361.28;4926983;29;20070;-73
2023/09/15 10:19:03;;;;;;;4.47;2.70;;;;;;;28.53;21.63;100302.47;4941548;28;20505;-71
2023/09/15 10:21:32;;;;;;;3.88;3.22;;;;;;;28.12;22.17;100335.91;4942255;28;20325;-72
2023/09/15 10:24:09;;;;;;;4.70;3.05;;;;;;;27.52;22.66;100298.31;4942157;28;20501;-74
2023/09/15 10:26:39;;;;;;;3.08;2.72;;;;;;;27.84;23.10;100361.97;4926581;29;20503;-72
2023/09/15 10:29:05;;;;;;;3.38;3.08;;;;;;;27.41;23.51;100375.69;4942913;28;20107;-73
2023/09/15 10:31:35;;;;;;;4.35;2.58;;;;;;;27.38;24.34;100376.75;4942041;28;20070;-73
2023/09/15 10:34:04;;;;;;;3.95;3.05;;;;;;;26.88;24.36;100326.81;4921640;29;20142;-73
2023/09/15 10:36:32;;;;;;;3.03;2.75;;;;;;;27.06;24.13;100377.22;4928231;29;20074;-73
2023/09/15 10:39:19;;;;;;;4.90;3.08;;;;;;;26.56;24.59;100294.28;4927431;29;21263;-73
2023/09/15 10:41:45;;;;;;;3.00;2.63;;;;;;;26.84;24.03;100345.78;4927369;29;20074;-74
2023/09/15 10:44:12;;;;;;;3.00;2.70;;;;;;;26.44;24.09;100366.19;4927958;29;20414;-72
2023/09/15 10:46:40;;;;;;;4.20;2.97;;;;;;;25.44;24.98;100274.03;4926685;29;20711;-72
2023/09/15 10:49:18;;;;;;;4.72;3.30;;;;;;;26.08;25.15;100380.09;4927802;29;20073;-72
2023/09/15 10:51:56;;;;;;;4.38;3.28;;;;;;;25.81;25.19;100309.81;4942302;28;20039;-71
2023/09/15 10:54:24;;;;;;;3.03;2.72;;;;;;;25.88;25.40;100349.41;4925990;29;20378;-71
2023/09/15 10:56:51;;;;;;;5.15;2.83;;;;;;;25.95;25.61;100385.34;4942693;28;20427;-72
2023/09/15 10:59:17;;;;;;;8.80;3.42;;;;;;;25.75;25.82;100374.16;4927789;29;20062;-73
2023/09/15 11:01:44;;;;;;;5.07;3.15;;;;;;;25.25;25.97;100371.03;4923410;29;20531;-72
2023/09/15 11:04:13;;;;;;;3.10;2.80;;;;;;;25.19;26.34;100398.03;4937524;28;20197;-73
2023/09/15 11:06:39;;;;;;;3.42;3.03;;;;;;;25.10;26.83;100392.31;4939617;28;20051;-73
2023/09/15 11:09:06;;;;;;;4.57;3.30;;;;;;;24.93;26.88;100344.59;4926999;29;20047;-72
2023/09/15 11:11:32;;;;;;;4.50;3.42;;;;;;;25.36;26.89;100397.00;4924783;29;20048;-73
2023/09/15 11:14:00;;;;;;;7.00;3.20;;;;;;;25.27;26.80;100383.28;4941120;28;20154;-73
2023/09/15 11:16:28;;;;;;;5.72;3.10;;;;;;;25.06;27.02;100364.16;4927356;29;20039;-74
2023/09/15 11:18:56;;;;;;;3.78;2.83;;;;;;;25.46;26.73;100382.22;4920606;29;20156;-73
2023/09/15 11:21:23;;;;;;;3.30;3.00;;;;;;;25.83;26.67;100379.00;4941085;28;20055;-76
2023/09/15 11:23:50;;;;;;;5.00;3.08;;;;;;;25.63;26.33;100358.97;4925110;29;20121;-75
2023/09/15 11:26:16;;;;;;;5.22;3.28;;;;;;;25.39;26.39;100351.53;4942129;28;20446;-73